sensor_id;sensor_type;location;lat;lon;timestamp;P1;durP1;ratioP1;P2;durP2;ratioP2
60464;SDS011;46314;52.392;9.758;2023-07-22T00:00:40;8.43;;;5.60;;
60464;SDS011;46314;52.392;9.758;2023-07-22T00:03:06;7.50;;;5.97;;
60464;SDS011;46314;52.392;9.758;2023-07-22T00:05:33;7.25;;;6.03;;
60464;SDS011;46314;52.392;9.758;2023-07-22T00:08:00;8.13;;;5.70;;
60464;SDS011;46314;52.392;9.758;2023-07-22T00:10:26;8.57;;;6.55;;
60464;SDS011;46314;52.392;9.758;2023-07-22T00:12:52;7.03;;;5.82;;
60464;SDS011;46314;52.392;9.758;2023-07-22T00:15:21;7.85;;;5.85;;
60464;SDS011;46314;52.392;9.758;2023-07-22T00:17:49;7.72;;;6.00;;
60464;SDS011;46314;52.392;9.758;2023-07-22T00:20:16;10.40;;;6.18;;
60464;SDS011;46314;52.392;9.758;2023-07-22T00:22:43;6.63;;;5.75;;
60464;SDS011;46314;52.392;9.758;2023-07-22T00:25:10;7.00;;;5.65;;
60464;SDS011;46314;52.392;9.758;2023-07-22T00:27:37;8.77;;;6.28;;
60464;SDS011;46314;52.392;9.758;2023-07-22T00:30:04;8.38;;;6.18;;
60464;SDS011;46314;52.392;9.758;2023-07-22T00:32:33;7.57;;;6.22;;
60464;SDS011;46314;52.392;9.758;2023-07-22T00:35:00;9.68;;;6.50;;
60464;SDS011;46314;52.392;9.758;2023-07-22T00:37:27;9.48;;;6.97;;
60464;SDS011;46314;52.392;9.758;2023-07-22T00:39:53;7.07;;;6.32;;
60464;SDS011;46314;52.392;9.758;2023-07-22T00:42:20;7.57;;;5.90;;
60464;SDS011;46314;52.392;9.758;2023-07-22T00:44:46;7.60;;;6.38;;
60464;SDS011;46314;52.392;9.758;2023-07-22T00:47:13;8.63;;;6.25;;
60464;SDS011;46314;52.392;9.758;2023-07-22T00:49:41;6.57;;;5.88;;
60464;SDS011;46314;52.392;9.758;2023-07-22T00:52:08;7.28;;;6.10;;
60464;SDS011;46314;52.392;9.758;2023-07-22T00:54:34;9.23;;;6.35;;
60464;SDS011;46314;52.392;9.758;2023-07-22T00:57:01;7.22;;;6.03;;
60464;SDS011;46314;52.392;9.758;2023-07-22T00:59:28;8.05;;;6.57;;
60464;SDS011;46314;52.392;9.758;2023-07-22T01:01:54;5.90;;;5.30;;
60464;SDS011;46314;52.392;9.758;2023-07-22T01:04:21;8.88;;;5.88;;
60464;SDS011;46314;52.392;9.758;2023-07-22T01:06:51;6.78;;;5.75;;
60464;SDS011;46314;52.392;9.758;2023-07-22T01:09:18;6.78;;;6.07;;
60464;SDS011;46314;52.392;9.758;2023-07-22T01:11:44;8.38;;;6.22;;
60464;SDS011;46314;52.392;9.758;2023-07-22T01:14:11;9.90;;;6.75;;
60464;SDS011;46314;52.392;9.758;2023-07-22T01:16:37;6.57;;;5.35;;
60464;SDS011;46314;52.392;9.758;2023-07-22T01:19:04;6.38;;;5.60;;
60464;SDS011;46314;52.392;9.758;2023-07-22T01:21:31;8.88;;;5.78;;
60464;SDS011;46314;52.392;9.758;2023-07-22T01:24:00;9.85;;;7.05;;
60464;SDS011;46314;52.392;9.758;2023-07-22T01:26:26;9.25;;;6.57;;
60464;SDS011;46314;52.392;9.758;2023-07-22T01:29:01;9.27;;;6.28;;
60464;SDS011;46314;52.392;9.758;2023-07-22T01:31:28;12.52;;;6.07;;
60464;SDS011;46314;52.392;9.758;2023-07-22T01:33:55;8.98;;;6.80;;
60464;SDS011;46314;52.392;9.758;2023-07-22T01:36:21;7.60;;;6.65;;
60464;SDS011;46314;52.392;9.758;2023-07-22T01:38:48;8.27;;;6.63;;
60464;SDS011;46314;52.392;9.758;2023-07-22T01:41:16;7.38;;;5.80;;
60464;SDS011;46314;52.392;9.758;2023-07-22T01:43:42;9.27;;;6.32;;
60464;SDS011;46314;52.392;9.758;2023-07-22T01:46:08;9.32;;;6.22;;
60464;SDS011;46314;52.392;9.758;2023-07-22T01:48:35;7.72;;;5.82;;
60464;SDS011;46314;52.392;9.758;2023-07-22T01:51:02;8.63;;;5.80;;
60464;SDS011;46314;52.392;9.758;2023-07-22T01:53:28;7.90;;;6.22;;
60464;SDS011;46314;52.392;9.758;2023-07-22T01:55:55;7.88;;;6.25;;
60464;SDS011;46314;52.392;9.758;2023-07-22T01:58:23;9.75;;;6.22;;
60464;SDS011;46314;52.392;9.758;2023-07-22T02:00:49;7.47;;;6.00;;
60464;SDS011;46314;52.392;9.758;2023-07-22T02:03:16;8.05;;;5.80;;
60464;SDS011;46314;52.392;9.758;2023-07-22T02:05:43;9.20;;;5.90;;
60464;SDS011;46314;52.392;9.758;2023-07-22T02:08:09;8.40;;;5.88;;
60464;SDS011;46314;52.392;9.758;2023-07-22T02:10:36;9.40;;;6.53;;
60464;SDS011;46314;52.392;9.758;2023-07-22T02:13:02;7.40;;;5.53;;
60464;SDS011;46314;52.392;9.758;2023-07-22T02:15:30;9.13;;;5.68;;
60464;SDS011;46314;52.392;9.758;2023-07-22T02:17:56;8.02;;;5.63;;
60464;SDS011;46314;52.392;9.758;2023-07-22T02:20:23;10.05;;;5.30;;
60464;SDS011;46314;52.392;9.758;2023-07-22T02:22:49;8.25;;;6.00;;
60464;SDS011;46314;52.392;9.758;2023-07-22T02:25:16;10.10;;;5.90;;
60464;SDS011;46314;52.392;9.758;2023-07-22T02:27:42;6.95;;;5.03;;
60464;SDS011;46314;52.392;9.758;2023-07-22T02:30:09;8.27;;;5.47;;
60464;SDS011;46314;52.392;9.758;2023-07-22T02:32:38;11.88;;;6.05;;
60464;SDS011;46314;52.392;9.758;2023-07-22T02:35:05;7.80;;;5.10;;
60464;SDS011;46314;52.392;9.758;2023-07-22T02:37:32;7.15;;;5.10;;
60464;SDS011;46314;52.392;9.758;2023-07-22T02:39:59;8.77;;;5.28;;
60464;SDS011;46314;52.392;9.758;2023-07-22T02:42:25;9.50;;;5.88;;
60464;SDS011;46314;52.392;9.758;2023-07-22T02:44:52;7.65;;;5.40;;
60464;SDS011;46314;52.392;9.758;2023-07-22T02:47:19;8.50;;;5.75;;
60464;SDS011;46314;52.392;9.758;2023-07-22T02:49:46;10.27;;;6.00;;
60464;SDS011;46314;52.392;9.758;2023-07-22T02:52:13;8.90;;;6.05;;
60464;SDS011;46314;52.392;9.758;2023-07-22T02:54:40;9.77;;;6.22;;
60464;SDS011;46314;52.392;9.758;2023-07-22T02:57:06;7.85;;;5.75;;
60464;SDS011;46314;52.392;9.758;2023-07-22T02:59:33;7.65;;;5.60;;
60464;SDS011;46314;52.392;9.758;2023-07-22T03:01:59;7.50;;;5.80;;
60464;SDS011;46314;52.392;9.758;2023-07-22T03:04:26;10.40;;;5.88;;
60464;SDS011;46314;52.392;9.758;2023-07-22T03:06:54;7.32;;;5.75;;
60464;SDS011;46314;52.392;9.758;2023-07-22T03:09:20;10.75;;;6.25;;
60464;SDS011;46314;52.392;9.758;2023-07-22T03:11:47;8.85;;;6.05;;
60464;SDS011;46314;52.392;9.758;2023-07-22T03:14:13;10.65;;;5.82;;
60464;SDS011;46314;52.392;9.758;2023-07-22T03:16:40;11.15;;;6.32;;
60464;SDS011;46314;52.392;9.758;2023-07-22T03:19:06;10.57;;;6.13;;
60464;SDS011;46314;52.392;9.758;2023-07-22T03:21:33;10.63;;;6.50;;
60464;SDS011;46314;52.392;9.758;2023-07-22T03:24:01;10.48;;;6.28;;
60464;SDS011;46314;52.392;9.758;2023-07-22T03:26:27;15.45;;;6.35;;
60464;SDS011;46314;52.392;9.758;2023-07-22T03:28:54;10.15;;;6.45;;
60464;SDS011;46314;52.392;9.758;2023-07-22T03:31:21;12.15;;;7.05;;
60464;SDS011;46314;52.392;9.758;2023-07-22T03:33:47;9.93;;;5.88;;
60464;SDS011;46314;52.392;9.758;2023-07-22T03:36:14;10.93;;;6.32;;
60464;SDS011;46314;52.392;9.758;2023-07-22T03:38:40;8.90;;;5.88;;
60464;SDS011;46314;52.392;9.758;2023-07-22T03:41:08;9.65;;;6.60;;
60464;SDS011;46314;52.392;9.758;2023-07-22T03:43:34;11.85;;;5.72;;
60464;SDS011;46314;52.392;9.758;2023-07-22T03:46:01;9.35;;;6.47;;
60464;SDS011;46314;52.392;9.758;2023-07-22T03:48:27;9.57;;;6.60;;
60464;SDS011;46314;52.392;9.758;2023-07-22T03:50:54;10.07;;;6.38;;
60464;SDS011;46314;52.392;9.758;2023-07-22T03:53:37;9.82;;;6.03;;
60464;SDS011;46314;52.392;9.758;2023-07-22T03:56:04;8.68;;;6.10;;
60464;SDS011;46314;52.392;9.758;2023-07-22T03:58:32;8.98;;;5.80;;
60464;SDS011;46314;52.392;9.758;2023-07-22T04:00:58;8.20;;;7.05;;
60464;SDS011;46314;52.392;9.758;2023-07-22T04:03:25;10.55;;;6.38;;
60464;SDS011;46314;52.392;9.758;2023-07-22T04:05:55;11.38;;;7.65;;
60464;SDS011;46314;52.392;9.758;2023-07-22T04:08:21;8.85;;;6.40;;
60464;SDS011;46314;52.392;9.758;2023-07-22T04:10:51;9.40;;;6.65;;
60464;SDS011;46314;52.392;9.758;2023-07-22T04:13:18;7.90;;;6.03;;
60464;SDS011;46314;52.392;9.758;2023-07-22T04:15:46;10.27;;;6.38;;
60464;SDS011;46314;52.392;9.758;2023-07-22T04:18:12;10.90;;;7.72;;
60464;SDS011;46314;52.392;9.758;2023-07-22T04:20:40;11.23;;;6.82;;
60464;SDS011;46314;52.392;9.758;2023-07-22T04:23:07;9.50;;;6.40;;
60464;SDS011;46314;52.392;9.758;2023-07-22T04:25:38;13.20;;;8.18;;
60464;SDS011;46314;52.392;9.758;2023-07-22T04:28:05;11.15;;;7.32;;
60464;SDS011;46314;52.392;9.758;2023-07-22T04:30:31;9.18;;;6.68;;
60464;SDS011;46314;52.392;9.758;2023-07-22T04:32:59;10.15;;;6.32;;
60464;SDS011;46314;52.392;9.758;2023-07-22T04:35:29;9.38;;;7.15;;
60464;SDS011;46314;52.392;9.758;2023-07-22T04:37:57;11.00;;;7.60;;
60464;SDS011;46314;52.392;9.758;2023-07-22T04:40:23;8.90;;;6.55;;
60464;SDS011;46314;52.392;9.758;2023-07-22T04:42:49;11.07;;;7.07;;
60464;SDS011;46314;52.392;9.758;2023-07-22T04:45:17;13.50;;;6.85;;
60464;SDS011;46314;52.392;9.758;2023-07-22T04:47:44;9.90;;;7.15;;
60464;SDS011;46314;52.392;9.758;2023-07-22T04:50:12;9.55;;;6.03;;
60464;SDS011;46314;52.392;9.758;2023-07-22T04:52:41;10.20;;;6.30;;
60464;SDS011;46314;52.392;9.758;2023-07-22T04:55:08;11.57;;;6.75;;
60464;SDS011;46314;52.392;9.758;2023-07-22T04:57:36;9.70;;;7.30;;
60464;SDS011;46314;52.392;9.758;2023-07-22T05:00:02;9.60;;;6.07;;
60464;SDS011;46314;52.392;9.758;2023-07-22T05:02:29;11.95;;;8.07;;
60464;SDS011;46314;52.392;9.758;2023-07-22T05:04:56;10.05;;;7.75;;
60464;SDS011;46314;52.392;9.758;2023-07-22T05:07:24;10.43;;;6.72;;
60464;SDS011;46314;52.392;9.758;2023-07-22T05:09:50;8.65;;;6.97;;
60464;SDS011;46314;52.392;9.758;2023-07-22T05:12:17;11.27;;;6.70;;
60464;SDS011;46314;52.392;9.758;2023-07-22T05:14:44;8.40;;;5.85;;
60464;SDS011;46314;52.392;9.758;2023-07-22T05:17:11;9.98;;;6.25;;
60464;SDS011;46314;52.392;9.758;2023-07-22T05:19:38;15.13;;;7.63;;
60464;SDS011;46314;52.392;9.758;2023-07-22T05:22:04;18.42;;;7.53;;
60464;SDS011;46314;52.392;9.758;2023-07-22T05:24:32;8.65;;;6.80;;
60464;SDS011;46314;52.392;9.758;2023-07-22T05:26:59;7.82;;;6.13;;
60464;SDS011;46314;52.392;9.758;2023-07-22T05:29:34;10.05;;;6.53;;
60464;SDS011;46314;52.392;9.758;2023-07-22T05:32:01;9.40;;;6.47;;
60464;SDS011;46314;52.392;9.758;2023-07-22T05:34:28;10.88;;;6.78;;
60464;SDS011;46314;52.392;9.758;2023-07-22T05:36:54;11.15;;;6.82;;
60464;SDS011;46314;52.392;9.758;2023-07-22T05:39:21;10.50;;;7.25;;
60464;SDS011;46314;52.392;9.758;2023-07-22T05:41:48;10.25;;;7.15;;
60464;SDS011;46314;52.392;9.758;2023-07-22T05:44:15;13.20;;;7.20;;
60464;SDS011;46314;52.392;9.758;2023-07-22T05:46:41;11.60;;;7.35;;
60464;SDS011;46314;52.392;9.758;2023-07-22T05:49:08;17.33;;;8.70;;
60464;SDS011;46314;52.392;9.758;2023-07-22T05:51:35;11.70;;;7.65;;
60464;SDS011;46314;52.392;9.758;2023-07-22T05:54:01;12.10;;;6.93;;
60464;SDS011;46314;52.392;9.758;2023-07-22T05:56:28;11.55;;;7.30;;
60464;SDS011;46314;52.392;9.758;2023-07-22T05:58:56;9.48;;;6.88;;
60464;SDS011;46314;52.392;9.758;2023-07-22T06:01:23;12.65;;;7.38;;
60464;SDS011;46314;52.392;9.758;2023-07-22T06:03:49;10.98;;;6.97;;
60464;SDS011;46314;52.392;9.758;2023-07-22T06:06:16;12.23;;;7.43;;
60464;SDS011;46314;52.392;9.758;2023-07-22T06:08:43;11.18;;;6.80;;
60464;SDS011;46314;52.392;9.758;2023-07-22T06:11:09;9.35;;;7.03;;
60464;SDS011;46314;52.392;9.758;2023-07-22T06:13:36;9.57;;;6.38;;
60464;SDS011;46314;52.392;9.758;2023-07-22T06:16:04;10.40;;;7.32;;
60464;SDS011;46314;52.392;9.758;2023-07-22T06:18:31;9.85;;;7.18;;
60464;SDS011;46314;52.392;9.758;2023-07-22T06:20:57;10.68;;;6.88;;
60464;SDS011;46314;52.392;9.758;2023-07-22T06:23:24;11.93;;;8.25;;
60464;SDS011;46314;52.392;9.758;2023-07-22T06:25:50;10.32;;;6.88;;
60464;SDS011;46314;52.392;9.758;2023-07-22T06:28:17;11.95;;;7.20;;
60464;SDS011;46314;52.392;9.758;2023-07-22T06:30:44;10.57;;;7.10;;
60464;SDS011;46314;52.392;9.758;2023-07-22T06:33:11;12.07;;;7.25;;
60464;SDS011;46314;52.392;9.758;2023-07-22T06:35:38;9.40;;;6.82;;
60464;SDS011;46314;52.392;9.758;2023-07-22T06:38:04;8.75;;;6.55;;
60464;SDS011;46314;52.392;9.758;2023-07-22T06:40:31;13.13;;;8.40;;
60464;SDS011;46314;52.392;9.758;2023-07-22T06:42:57;8.90;;;6.15;;
60464;SDS011;46314;52.392;9.758;2023-07-22T06:45:25;12.20;;;6.93;;
60464;SDS011;46314;52.392;9.758;2023-07-22T06:47:52;8.73;;;6.20;;
60464;SDS011;46314;52.392;9.758;2023-07-22T06:50:19;8.70;;;6.45;;
60464;SDS011;46314;52.392;9.758;2023-07-22T06:52:46;12.88;;;7.43;;
60464;SDS011;46314;52.392;9.758;2023-07-22T06:55:13;10.70;;;6.97;;
60464;SDS011;46314;52.392;9.758;2023-07-22T06:57:40;10.00;;;6.13;;
60464;SDS011;46314;52.392;9.758;2023-07-22T07:00:07;11.88;;;7.13;;
60464;SDS011;46314;52.392;9.758;2023-07-22T07:02:34;11.80;;;6.78;;
60464;SDS011;46314;52.392;9.758;2023-07-22T07:05:00;57.78;;;12.07;;
60464;SDS011;46314;52.392;9.758;2023-07-22T07:07:28;29.42;;;8.63;;
60464;SDS011;46314;52.392;9.758;2023-07-22T07:09:55;9.98;;;7.40;;
60464;SDS011;46314;52.392;9.758;2023-07-22T07:12:21;10.73;;;7.78;;
60464;SDS011;46314;52.392;9.758;2023-07-22T07:14:49;13.90;;;7.47;;
60464;SDS011;46314;52.392;9.758;2023-07-22T07:17:16;8.27;;;6.93;;
60464;SDS011;46314;52.392;9.758;2023-07-22T07:19:43;11.00;;;8.02;;
60464;SDS011;46314;52.392;9.758;2023-07-22T07:22:09;9.55;;;7.20;;
60464;SDS011;46314;52.392;9.758;2023-07-22T07:24:37;10.57;;;7.13;;
60464;SDS011;46314;52.392;9.758;2023-07-22T07:27:04;10.10;;;7.63;;
60464;SDS011;46314;52.392;9.758;2023-07-22T07:29:31;9.82;;;6.95;;
60464;SDS011;46314;52.392;9.758;2023-07-22T07:32:17;10.77;;;7.35;;
60464;SDS011;46314;52.392;9.758;2023-07-22T07:34:44;10.40;;;7.15;;
60464;SDS011;46314;52.392;9.758;2023-07-22T07:37:11;8.98;;;6.80;;
60464;SDS011;46314;52.392;9.758;2023-07-22T07:39:38;9.20;;;7.38;;
60464;SDS011;46314;52.392;9.758;2023-07-22T07:42:05;9.55;;;6.82;;
60464;SDS011;46314;52.392;9.758;2023-07-22T07:44:32;10.93;;;7.43;;
60464;SDS011;46314;52.392;9.758;2023-07-22T07:46:58;9.00;;;6.93;;
60464;SDS011;46314;52.392;9.758;2023-07-22T07:49:25;10.73;;;7.10;;
60464;SDS011;46314;52.392;9.758;2023-07-22T07:51:51;10.02;;;7.60;;
60464;SDS011;46314;52.392;9.758;2023-07-22T07:54:18;9.82;;;7.07;;
60464;SDS011;46314;52.392;9.758;2023-07-22T07:56:46;10.15;;;7.32;;
60464;SDS011;46314;52.392;9.758;2023-07-22T07:59:12;13.73;;;7.32;;
60464;SDS011;46314;52.392;9.758;2023-07-22T08:01:39;9.48;;;6.45;;
60464;SDS011;46314;52.392;9.758;2023-07-22T08:04:06;10.20;;;7.35;;
60464;SDS011;46314;52.392;9.758;2023-07-22T08:06:32;12.35;;;6.68;;
60464;SDS011;46314;52.392;9.758;2023-07-22T08:08:59;9.25;;;7.28;;
60464;SDS011;46314;52.392;9.758;2023-07-22T08:11:25;10.82;;;7.30;;
60464;SDS011;46314;52.392;9.758;2023-07-22T08:13:53;8.48;;;6.25;;
60464;SDS011;46314;52.392;9.758;2023-07-22T08:16:19;10.50;;;7.15;;
60464;SDS011;46314;52.392;9.758;2023-07-22T08:18:46;9.60;;;6.72;;
60464;SDS011;46314;52.392;9.758;2023-07-22T08:21:12;13.52;;;7.28;;
60464;SDS011;46314;52.392;9.758;2023-07-22T08:23:39;11.63;;;8.05;;
60464;SDS011;46314;52.392;9.758;2023-07-22T08:26:05;8.75;;;6.85;;
60464;SDS011;46314;52.392;9.758;2023-07-22T08:28:33;9.00;;;7.50;;
60464;SDS011;46314;52.392;9.758;2023-07-22T08:31:01;7.70;;;6.78;;
60464;SDS011;46314;52.392;9.758;2023-07-22T08:33:28;10.18;;;7.35;;
60464;SDS011;46314;52.392;9.758;2023-07-22T08:36:06;9.15;;;7.50;;
60464;SDS011;46314;52.392;9.758;2023-07-22T08:38:33;9.50;;;7.05;;
60464;SDS011;46314;52.392;9.758;2023-07-22T08:41:00;9.57;;;7.15;;
60464;SDS011;46314;52.392;9.758;2023-07-22T08:43:27;10.40;;;7.40;;
60464;SDS011;46314;52.392;9.758;2023-07-22T08:45:54;7.78;;;6.97;;
60464;SDS011;46314;52.392;9.758;2023-07-22T08:48:26;8.65;;;6.93;;
60464;SDS011;46314;52.392;9.758;2023-07-22T08:50:55;8.75;;;6.78;;
60464;SDS011;46314;52.392;9.758;2023-07-22T08:53:27;11.00;;;6.55;;
60464;SDS011;46314;52.392;9.758;2023-07-22T08:55:56;9.45;;;6.82;;
60464;SDS011;46314;52.392;9.758;2023-07-22T08:58:23;12.40;;;6.88;;
60464;SDS011;46314;52.392;9.758;2023-07-22T09:00:50;9.43;;;7.13;;
60464;SDS011;46314;52.392;9.758;2023-07-22T09:03:18;13.00;;;7.70;;
60464;SDS011;46314;52.392;9.758;2023-07-22T09:05:46;8.57;;;7.65;;
60464;SDS011;46314;52.392;9.758;2023-07-22T09:08:14;9.15;;;8.18;;
60464;SDS011;46314;52.392;9.758;2023-07-22T09:10:40;11.38;;;8.18;;
60464;SDS011;46314;52.392;9.758;2023-07-22T09:13:08;11.30;;;8.57;;
60464;SDS011;46314;52.392;9.758;2023-07-22T09:15:36;9.57;;;8.27;;
60464;SDS011;46314;52.392;9.758;2023-07-22T09:18:02;9.35;;;8.35;;
60464;SDS011;46314;52.392;9.758;2023-07-22T09:20:29;11.57;;;9.57;;
60464;SDS011;46314;52.392;9.758;2023-07-22T09:22:58;12.73;;;9.98;;
60464;SDS011;46314;52.392;9.758;2023-07-22T09:25:39;11.80;;;9.52;;
60464;SDS011;46314;52.392;9.758;2023-07-22T09:28:07;15.50;;;9.63;;
60464;SDS011;46314;52.392;9.758;2023-07-22T09:30:34;11.02;;;9.05;;
60464;SDS011;46314;52.392;9.758;2023-07-22T09:33:02;10.63;;;8.70;;
60464;SDS011;46314;52.392;9.758;2023-07-22T09:35:30;11.00;;;9.02;;
60464;SDS011;46314;52.392;9.758;2023-07-22T09:38:05;9.35;;;8.27;;
60464;SDS011;46314;52.392;9.758;2023-07-22T09:40:31;9.02;;;7.97;;
60464;SDS011;46314;52.392;9.758;2023-07-22T09:43:00;11.27;;;8.43;;
60464;SDS011;46314;52.392;9.758;2023-07-22T09:45:28;10.43;;;8.02;;
60464;SDS011;46314;52.392;9.758;2023-07-22T09:47:56;11.82;;;8.25;;
60464;SDS011;46314;52.392;9.758;2023-07-22T09:50:23;11.75;;;8.00;;
60464;SDS011;46314;52.392;9.758;2023-07-22T09:52:51;8.88;;;7.47;;
60464;SDS011;46314;52.392;9.758;2023-07-22T09:55:20;11.85;;;8.63;;
60464;SDS011;46314;52.392;9.758;2023-07-22T09:57:49;10.10;;;7.53;;
60464;SDS011;46314;52.392;9.758;2023-07-22T10:00:18;10.13;;;9.10;;
60464;SDS011;46314;52.392;9.758;2023-07-22T10:02:46;9.18;;;7.35;;
60464;SDS011;46314;52.392;9.758;2023-07-22T10:05:14;9.57;;;7.85;;
60464;SDS011;46314;52.392;9.758;2023-07-22T10:07:43;9.25;;;7.30;;
60464;SDS011;46314;52.392;9.758;2023-07-22T10:10:11;7.55;;;6.70;;
60464;SDS011;46314;52.392;9.758;2023-07-22T10:12:40;8.73;;;6.78;;
60464;SDS011;46314;52.392;9.758;2023-07-22T10:15:08;7.07;;;6.38;;
60464;SDS011;46314;52.392;9.758;2023-07-22T10:17:36;7.65;;;6.30;;
60464;SDS011;46314;52.392;9.758;2023-07-22T10:20:03;7.78;;;6.97;;
60464;SDS011;46314;52.392;9.758;2023-07-22T10:22:30;9.05;;;6.70;;
60464;SDS011;46314;52.392;9.758;2023-07-22T10:24:58;7.70;;;5.85;;
60464;SDS011;46314;52.392;9.758;2023-07-22T10:27:26;8.45;;;6.70;;
60464;SDS011;46314;52.392;9.758;2023-07-22T10:29:56;7.45;;;5.82;;
60464;SDS011;46314;52.392;9.758;2023-07-22T10:32:22;6.35;;;5.75;;
60464;SDS011;46314;52.392;9.758;2023-07-22T10:34:49;6.45;;;5.85;;
60464;SDS011;46314;52.392;9.758;2023-07-22T10:37:17;6.72;;;5.20;;
60464;SDS011;46314;52.392;9.758;2023-07-22T10:39:43;7.88;;;6.10;;
60464;SDS011;46314;52.392;9.758;2023-07-22T10:42:17;8.88;;;6.07;;
60464;SDS011;46314;52.392;9.758;2023-07-22T10:44:50;6.38;;;5.70;;
60464;SDS011;46314;52.392;9.758;2023-07-22T10:47:32;7.00;;;5.45;;
60464;SDS011;46314;52.392;9.758;2023-07-22T10:50:05;8.13;;;5.95;;
60464;SDS011;46314;52.392;9.758;2023-07-22T10:52:39;10.23;;;6.57;;
60464;SDS011;46314;52.392;9.758;2023-07-22T10:55:14;8.20;;;5.60;;
60464;SDS011;46314;52.392;9.758;2023-07-22T10:57:48;7.18;;;6.32;;
60464;SDS011;46314;52.392;9.758;2023-07-22T11:00:19;7.05;;;5.90;;
60464;SDS011;46314;52.392;9.758;2023-07-22T11:02:48;7.82;;;6.70;;
60464;SDS011;46314;52.392;9.758;2023-07-22T11:05:47;8.25;;;6.63;;
60464;SDS011;46314;52.392;9.758;2023-07-22T11:08:14;7.13;;;6.15;;
60464;SDS011;46314;52.392;9.758;2023-07-22T11:10:51;7.80;;;6.53;;
60464;SDS011;46314;52.392;9.758;2023-07-22T11:13:18;6.28;;;5.68;;
60464;SDS011;46314;52.392;9.758;2023-07-22T11:15:52;8.65;;;6.35;;
60464;SDS011;46314;52.392;9.758;2023-07-22T11:18:20;7.07;;;6.30;;
60464;SDS011;46314;52.392;9.758;2023-07-22T11:20:47;6.13;;;5.53;;
60464;SDS011;46314;52.392;9.758;2023-07-22T11:23:18;6.78;;;5.88;;
60464;SDS011;46314;52.392;9.758;2023-07-22T11:25:45;6.82;;;5.15;;
60464;SDS011;46314;52.392;9.758;2023-07-22T11:28:13;7.03;;;5.63;;
60464;SDS011;46314;52.392;9.758;2023-07-22T11:30:40;6.60;;;5.53;;
60464;SDS011;46314;52.392;9.758;2023-07-22T11:33:06;7.00;;;5.43;;
60464;SDS011;46314;52.392;9.758;2023-07-22T11:35:34;6.60;;;4.97;;
60464;SDS011;46314;52.392;9.758;2023-07-22T11:38:01;6.50;;;4.88;;
60464;SDS011;46314;52.392;9.758;2023-07-22T11:40:32;6.47;;;5.00;;
60464;SDS011;46314;52.392;9.758;2023-07-22T11:42:59;6.10;;;5.00;;
60464;SDS011;46314;52.392;9.758;2023-07-22T11:45:26;6.43;;;5.82;;
60464;SDS011;46314;52.392;9.758;2023-07-22T11:47:52;5.97;;;5.38;;
60464;SDS011;46314;52.392;9.758;2023-07-22T11:50:19;6.72;;;5.65;;
60464;SDS011;46314;52.392;9.758;2023-07-22T11:52:58;7.22;;;6.13;;
60464;SDS011;46314;52.392;9.758;2023-07-22T11:55:25;8.00;;;6.18;;
60464;SDS011;46314;52.392;9.758;2023-07-22T11:58:02;9.00;;;6.32;;
60464;SDS011;46314;52.392;9.758;2023-07-22T12:00:28;7.70;;;5.88;;
60464;SDS011;46314;52.392;9.758;2023-07-22T12:02:55;8.02;;;5.53;;
60464;SDS011;46314;52.392;9.758;2023-07-22T12:05:22;6.57;;;5.25;;
60464;SDS011;46314;52.392;9.758;2023-07-22T12:07:48;7.47;;;5.07;;
60464;SDS011;46314;52.392;9.758;2023-07-22T12:10:16;6.38;;;5.50;;
60464;SDS011;46314;52.392;9.758;2023-07-22T12:12:44;6.43;;;5.40;;
60464;SDS011;46314;52.392;9.758;2023-07-22T12:15:12;6.38;;;5.45;;
60464;SDS011;46314;52.392;9.758;2023-07-22T12:17:43;13.57;;;6.07;;
60464;SDS011;46314;52.392;9.758;2023-07-22T12:22:40;6.95;;;5.53;;
60464;SDS011;46314;52.392;9.758;2023-07-22T12:25:07;5.95;;;5.35;;
60464;SDS011;46314;52.392;9.758;2023-07-22T12:27:35;6.30;;;5.63;;
60464;SDS011;46314;52.392;9.758;2023-07-22T12:30:03;7.03;;;6.03;;
60464;SDS011;46314;52.392;9.758;2023-07-22T12:32:30;6.80;;;6.10;;
60464;SDS011;46314;52.392;9.758;2023-07-22T12:34:56;9.25;;;6.15;;
60464;SDS011;46314;52.392;9.758;2023-07-22T12:37:23;6.70;;;5.88;;
60464;SDS011;46314;52.392;9.758;2023-07-22T12:39:49;7.10;;;6.40;;
60464;SDS011;46314;52.392;9.758;2023-07-22T12:42:16;7.43;;;6.38;;
60464;SDS011;46314;52.392;9.758;2023-07-22T12:44:43;11.13;;;5.97;;
60464;SDS011;46314;52.392;9.758;2023-07-22T12:47:10;6.60;;;5.90;;
60464;SDS011;46314;52.392;9.758;2023-07-22T12:49:36;6.13;;;5.40;;
60464;SDS011;46314;52.392;9.758;2023-07-22T12:52:03;7.90;;;6.18;;
60464;SDS011;46314;52.392;9.758;2023-07-22T12:54:30;6.45;;;5.47;;
60464;SDS011;46314;52.392;9.758;2023-07-22T12:56:57;6.35;;;5.40;;
60464;SDS011;46314;52.392;9.758;2023-07-22T12:59:23;8.73;;;6.03;;
60464;SDS011;46314;52.392;9.758;2023-07-22T13:01:51;8.48;;;5.88;;
60464;SDS011;46314;52.392;9.758;2023-07-22T13:04:17;6.75;;;6.05;;
60464;SDS011;46314;52.392;9.758;2023-07-22T13:06:44;6.50;;;5.80;;
60464;SDS011;46314;52.392;9.758;2023-07-22T13:09:10;6.88;;;5.60;;
60464;SDS011;46314;52.392;9.758;2023-07-22T13:11:37;7.10;;;5.93;;
60464;SDS011;46314;52.392;9.758;2023-07-22T13:14:04;9.18;;;6.30;;
60464;SDS011;46314;52.392;9.758;2023-07-22T13:16:30;6.80;;;5.70;;
60464;SDS011;46314;52.392;9.758;2023-07-22T13:18:58;7.20;;;6.50;;
60464;SDS011;46314;52.392;9.758;2023-07-22T13:21:24;6.63;;;5.82;;
60464;SDS011;46314;52.392;9.758;2023-07-22T13:23:51;7.30;;;5.25;;
60464;SDS011;46314;52.392;9.758;2023-07-22T13:26:18;6.25;;;5.55;;
60464;SDS011;46314;52.392;9.758;2023-07-22T13:28:44;5.97;;;5.45;;
60464;SDS011;46314;52.392;9.758;2023-07-22T13:31:11;7.85;;;6.22;;
60464;SDS011;46314;52.392;9.758;2023-07-22T13:33:37;6.88;;;5.65;;
60464;SDS011;46314;52.392;9.758;2023-07-22T13:36:05;5.97;;;5.38;;
60464;SDS011;46314;52.392;9.758;2023-07-22T13:38:32;9.23;;;6.30;;
60464;SDS011;46314;52.392;9.758;2023-07-22T13:40:58;8.43;;;6.40;;
60464;SDS011;46314;52.392;9.758;2023-07-22T13:43:25;7.82;;;6.30;;
60464;SDS011;46314;52.392;9.758;2023-07-22T13:45:51;8.73;;;5.28;;
60464;SDS011;46314;52.392;9.758;2023-07-22T13:48:18;6.05;;;5.40;;
60464;SDS011;46314;52.392;9.758;2023-07-22T13:50:44;6.65;;;5.95;;
60464;SDS011;46314;52.392;9.758;2023-07-22T13:53:12;9.05;;;6.28;;
60464;SDS011;46314;52.392;9.758;2023-07-22T13:55:39;10.95;;;9.65;;
60464;SDS011;46314;52.392;9.758;2023-07-22T13:58:05;17.10;;;15.45;;
60464;SDS011;46314;52.392;9.758;2023-07-22T14:00:32;7.28;;;6.18;;
60464;SDS011;46314;52.392;9.758;2023-07-22T14:02:59;7.18;;;5.65;;
60464;SDS011;46314;52.392;9.758;2023-07-22T14:05:26;6.72;;;6.05;;
60464;SDS011;46314;52.392;9.758;2023-07-22T14:07:52;7.03;;;6.03;;
60464;SDS011;46314;52.392;9.758;2023-07-22T14:10:20;6.97;;;5.72;;
60464;SDS011;46314;52.392;9.758;2023-07-22T14:12:47;8.25;;;6.07;;
60464;SDS011;46314;52.392;9.758;2023-07-22T14:15:13;6.90;;;5.90;;
60464;SDS011;46314;52.392;9.758;2023-07-22T14:17:40;6.07;;;5.47;;
60464;SDS011;46314;52.392;9.758;2023-07-22T14:20:07;8.00;;;5.90;;
60464;SDS011;46314;52.392;9.758;2023-07-22T14:22:34;6.70;;;5.38;;
60464;SDS011;46314;52.392;9.758;2023-07-22T14:25:00;6.00;;;5.40;;
60464;SDS011;46314;52.392;9.758;2023-07-22T14:27:28;6.95;;;6.25;;
60464;SDS011;46314;52.392;9.758;2023-07-22T14:29:55;6.28;;;5.60;;
60464;SDS011;46314;52.392;9.758;2023-07-22T14:32:21;7.35;;;5.68;;
60464;SDS011;46314;52.392;9.758;2023-07-22T14:34:48;6.22;;;5.43;;
60464;SDS011;46314;52.392;9.758;2023-07-22T14:37:14;6.70;;;6.03;;
60464;SDS011;46314;52.392;9.758;2023-07-22T14:39:41;7.55;;;5.47;;
60464;SDS011;46314;52.392;9.758;2023-07-22T14:42:07;6.78;;;5.90;;
60464;SDS011;46314;52.392;9.758;2023-07-22T14:44:35;9.00;;;6.13;;
60464;SDS011;46314;52.392;9.758;2023-07-22T14:47:01;8.50;;;5.22;;